Latest Weather Observations for Rottnest Island

IDW60801

Issued at 7:13 am WST Thursday 21 October 2021 (issued every 10 minutes, with the page automatically refreshed every 10 minutes)

About weather observations | Map of weather stations | Latest weather observations for WA | Other Formats
Station Details ID: 009193 Name: ROTTNEST ISLAND Lat: -32.01 Lon: 115.50 Height: 43.1 m
Data from the previous 72 hours. | See also: Recent months at Rottnest Island
Date/Time
WST
Temp
°C
App
Temp
°C
Dew
Point
°C
Rel
Hum
%
Delta-T
°C
Wind Press
QNH
hPa
Press
MSL
hPa
Rain since
9am
mm
Dir  Spd
km/h
Gust
km/h
Spd
kts
Gust
kts
21/07:00am 16.9 12.0 11.4 70 3.0 WSW 28 37 15 20 1015.3 1015.2 0.8
21/06:30am 15.8 11.6 11.0 73 2.6 W 24 33 13 18 1014.8 1014.7 0.8
21/06:00am 15.7 11.1 11.1 74 2.5 W 26 35 14 19 1014.4 1014.3 0.8
21/05:30am 16.0 11.0 11.0 72 2.7 WSW 28 43 15 23 1014.1 1014.0 0.8
21/05:00am 15.7 11.3 10.5 71 2.8 WSW 24 33 13 18 1013.7 1013.6 0.8
21/04:30am 15.7 11.2 10.2 70 2.9 W 24 33 13 18 1013.5 1013.4 0.8
21/04:00am 15.3 10.8 9.9 70 2.8 WSW 24 32 13 17 1013.4 1013.3 0.8
21/03:30am 15.4 10.4 9.7 69 3.0 WSW 26 32 14 17 1013.2 1013.1 0.8
21/03:00am 15.4 10.4 9.5 68 3.1 W 26 35 14 19 1013.1 1013.0 0.8
21/02:30am 15.5 10.2 9.8 69 3.0 W 28 39 15 21 1013.1 1013.0 0.8
21/02:00am 15.5 10.0 9.2 66 3.2 W 28 35 15 19 1013.2 1013.1 0.8
21/01:30am 15.6 10.3 9.9 69 3.0 W 28 39 15 21 1013.3 1013.2 0.8
21/01:00am 15.6 10.4 10.2 70 2.8 W 28 41 15 22 1013.2 1013.1 0.8
21/12:30am 15.9 10.4 10.4 70 2.9 W 30 39 16 21 1013.3 1013.2 0.8
21/12:00am 15.8 10.3 10.6 71 2.8 W 30 43 16 23 1013.3 1013.2 0.8
 
Date/Time
WST
Temp
°C
App
Temp
°C
Dew
Point
°C
Rel
Hum
%
Delta-T
°C
Wind Press
QNH
hPa
Press
MSL
hPa
Rain since
9am
mm
Dir  Spd
km/h
Gust
km/h
Spd
kts
Gust
kts
20/11:30pm 15.7 10.7 12.1 79 2.0 WSW 30 39 16 21 1013.3 1013.2 0.8
20/11:00pm 15.4 11.5 13.4 88 1.1 W 26 37 14 20 1013.4 1013.3 0.8
20/10:30pm 16.2 12.4 14.7 91 0.9 W 28 37 15 20 1013.4 1013.3 0.8
20/10:00pm 16.4 11.3 13.7 84 1.5 W 33 48 18 26 1013.5 1013.4 0.8
20/09:30pm 16.4 12.5 13.3 82 1.7 W 26 33 14 18 1013.5 1013.4 0.8
20/09:00pm 16.8 12.6 13.5 81 1.9 W 28 37 15 20 1013.4 1013.3 0.8
20/08:30pm 16.7 13.2 15.4 92 0.8 W 28 39 15 21 1013.2 1013.1 0.8
20/08:00pm 16.5 13.6 16.2 98 0.2 W 26 37 14 20 1013.0 1012.9 0.8
20/07:30pm 15.6 12.4 15.4 99 0.1 W 26 35 14 19 1012.7 1012.6 0.8
20/07:00pm 15.2 10.3 15.2 100 0.0 W 35 50 19 27 1012.7 1012.6 0.8
20/06:54pm 15.7 11.9 15.7 100 0.0 W 30 50 16 27 1012.6 1012.5 0.8
20/06:30pm 15.1 10.5 15.1 100 0.0 WSW 33 44 18 24 1012.4 1012.3 0.6
20/06:11pm 15.4 11.1 15.4 100 0.0 WSW 32 50 17 27 1012.3 1012.2 0.2
20/06:00pm 15.7 9.7 15.4 98 0.2 WSW 41 54 22 29 1012.2 1012.1 0.2
20/05:52pm 17.3 11.1 14.9 86 1.4 WNW 41 54 22 29 1012.1 1012.0 0.2
20/05:30pm 18.0 12.3 15.3 84 1.6 WNW 39 54 21 29 1011.7 1011.6 0.2
20/05:00pm 18.2 12.7 14.7 80 2.0 WNW 37 52 20 28 1011.4 1011.3 0.2
20/04:30pm 18.6 13.6 15.1 80 2.0 NW 35 48 19 26 1011.1 1011.0 0.2
20/04:00pm 18.3 12.3 14.4 78 2.3 WNW 39 50 21 27 1011.1 1011.0 0.2
20/03:30pm 19.0 12.9 15.3 79 2.2 WNW 41 54 22 29 1011.2 1011.1 0.2
20/03:00pm 18.1 12.3 16.1 88 1.2 WNW 41 56 22 30 1011.3 1011.2 0.2
20/02:30pm 16.8 12.4 16.6 99 0.1 NW 35 48 19 26 1011.4 1011.3 0.2
20/02:14pm 17.5 10.2 14.6 83 1.7 NW 46 67 25 36 1011.2 1011.1 0.0
20/02:00pm 18.7 11.9 14.2 75 2.6 NW 43 54 23 29 1011.3 1011.2 0.0
20/01:30pm 18.3 11.2 14.0 76 2.5 NW 44 56 24 30 1011.3 1011.2 0.0
20/01:00pm 18.2 11.5 13.3 73 2.8 NW 41 54 22 29 1011.3 1011.2 0.0
20/12:30pm 19.0 12.0 13.8 72 3.0 NW 43 56 23 30 1011.2 1011.1 0.0
20/12:00pm 19.0 11.6 14.1 73 2.8 NW 46 57 25 31 1011.0 1010.9 0.0
20/11:30am 18.0 11.7 13.5 75 2.6 NW 39 48 21 26 1011.1 1011.0 0.0
20/11:00am 17.3 11.2 13.0 76 2.4 NW 37 48 20 26 1011.6 1011.5 0.0
20/10:30am 16.3 10.7 14.5 89 1.0 WNW 37 50 20 27 1011.3 1011.2 0.0
20/10:00am 18.1 11.8 12.3 69 3.2 NW 37 50 20 27 1011.6 1011.5 0.0
20/09:30am 17.8 12.0 12.7 72 2.8 WNW 35 46 19 25 1011.4 1011.3 0.0
20/09:00am 17.6 11.6 12.1 70 3.0 WNW 35 52 19 28 1011.1 1011.0 8.6
20/08:30am 16.7 9.2 11.0 69 3.1 WNW 41 56 22 30 1010.8 1010.7 8.6
20/08:00am 16.6 9.2 10.0 65 3.5 WNW 39 50 21 27 1010.6 1010.5 8.6
20/07:30am 16.3 8.3 10.6 69 3.0 WNW 43 56 23 30 1010.1 1010.0 8.6
20/07:00am 16.1 9.4 9.5 65 3.4 W 35 52 19 28 1009.8 1009.7 8.6
20/06:43am 16.0 9.8 9.9 67 3.2 W 33 54 18 29 1009.6 1009.5 8.6
20/06:30am 16.0 9.4 9.9 67 3.2 W 35 50 19 27 1009.5 1009.4 8.6
20/06:00am 15.7 8.9 9.4 66 3.3 W 35 50 19 27 1009.1 1009.0 8.6
20/05:30am 15.6 8.2 9.9 69 3.0 WNW 39 50 21 27 1008.5 1008.4 8.6
20/05:02am 15.2 8.6 11.2 77 2.1 WNW 37 59 20 32 1008.3 1008.2 8.6
20/05:00am 15.2 8.7 11.6 79 1.9 WNW 37 48 20 26 1008.2 1008.1 8.6
20/04:39am 14.2 6.1 12.1 87 1.1 WNW 46 65 25 35 1008.3 1008.2 8.6
20/04:30am 13.8 4.9 11.8 88 1.1 WNW 50 65 27 35 1008.3 1008.2 8.6
20/04:06am 14.1 6.7 12.5 90 0.9 WNW 43 57 23 31 1008.4 1008.3 8.4
20/04:00am 13.7 5.8 11.6 87 1.1 WNW 44 57 24 31 1008.1 1008.0 8.4
20/03:30am 15.1 6.7 9.7 70 2.8 W 44 65 24 35 1008.2 1008.1 8.4
20/03:01am 15.2 7.5 10.2 72 2.6 W 41 59 22 32 1007.8 1007.8 8.4
20/03:00am 15.2 7.1 10.0 71 2.7 W 43 59 23 32 1007.8 1007.8 8.4
20/02:49am 14.5 6.6 10.7 78 2.0 W 43 61 23 33 1007.6 1007.6 8.4
20/02:30am 15.2 6.9 10.2 72 2.6 WNW 44 56 24 30 1007.5 1007.5 8.2
20/02:00am 15.7 9.2 10.5 71 2.8 W 35 56 19 30 1007.1 1007.1 8.2
20/01:30am 15.5 8.0 10.7 73 2.5 W 41 61 22 33 1007.1 1007.1 8.2
20/01:01am 15.6 9.3 12.4 81 1.8 W 37 56 20 30 1006.9 1006.9 8.2
20/01:00am 15.5 9.2 12.3 81 1.8 W 37 48 20 26 1006.9 1006.9 8.2
20/12:41am 15.8 8.7 10.8 72 2.7 W 39 57 21 31 1006.7 1006.7 8.2
20/12:30am 15.7 7.7 10.5 71 2.8 W 43 57 23 31 1006.7 1006.7 8.2
20/12:00am 15.9 7.8 10.7 71 2.8 W 44 69 24 37 1006.3 1006.3 8.2
 
Date/Time
WST
Temp
°C
App
Temp
°C
Dew
Point
°C
Rel
Hum
%
Delta-T
°C
Wind Press
QNH
hPa
Press
MSL
hPa
Rain since
9am
mm
Dir  Spd
km/h
Gust
km/h
Spd
kts
Gust
kts
19/11:30pm 15.8 6.8 11.6 76 2.3 W 50 69 27 37 1005.8 1005.8 8.2
19/11:07pm 14.9 6.2 12.4 85 1.4 W 50 76 27 41 1005.4 1005.4 8.2
19/11:04pm 14.8 6.7 11.9 83 1.6 W 46 76 25 41 1005.3 1005.3 8.2
19/11:02pm 15.9 8.8 13.4 85 1.4 W 43 74 23 40 1005.3 1005.3 8.2
19/11:00pm 15.7 8.6 13.4 86 1.3 WSW 43 57 23 31 1005.2 1005.2 8.2
19/10:30pm 16.2 6.4 12.6 79 2.0 WSW 56 74 30 40 1004.7 1004.6 8.2
19/10:00pm 16.3 6.2 12.3 77 2.2 WSW 57 80 31 43 1004.0 1003.9 8.2
19/09:30pm 16.4 6.6 13.3 82 1.7 W 57 78 31 42 1003.1 1003.0 8.2
19/09:00pm 16.3 6.3 13.8 85 1.4 WSW 59 83 32 45 1002.3 1002.2 8.2
19/08:30pm 16.2 8.6 15.7 97 0.3 W 50 69 27 37 1001.5 1001.4 8.2
19/08:00pm 15.8 6.5 14.7 93 0.6 WNW 57 80 31 43 1000.7 1000.6 8.2
19/07:57pm 16.9 8.5 14.7 87 1.3 WNW 52 80 28 43 1000.3 1000.2 8.2
19/07:33pm 16.5 10.8 16.3 99 0.1 NW 41 59 22 32 999.6 999.5 8.2
19/07:30pm 16.4 10.1 16.2 99 0.1 NW 44 59 24 32 999.6 999.5 8.2
19/07:00pm 15.9 8.7 15.9 100 0.0 NW 48 65 26 35 998.8 998.7 8.2
19/06:30pm 15.2 5.2 15.0 99 0.1 NW 61 85 33 46 998.4 998.3 8.0
19/06:00pm 15.8 3.6 14.7 93 0.6 NW 72 91 39 49 998.0 997.9 7.8
19/05:30pm 15.7 5.1 15.2 97 0.3 NNW 65 87 35 47 997.8 997.7 7.6
19/05:00pm 15.5 3.4 13.3 87 1.2 NNW 69 95 37 51 996.8 996.7 7.4
19/04:30pm 16.4 4.9 12.6 78 2.1 NNW 65 83 35 45 997.1 997.0 7.4
19/04:00pm 18.2 6.1 12.0 67 3.4 NNW 67 87 36 47 997.9 997.8 7.4
19/03:30pm 18.3 6.3 11.1 63 3.9 NNW 65 89 35 48 997.2 997.1 7.4
19/03:00pm 17.5 4.4 10.4 63 3.8 NNW 70 98 38 53 997.6 997.5 7.2
19/02:30pm 17.3 6.9 13.8 80 2.0 NNW 61 87 33 47 997.7 997.6 7.0
19/02:00pm 19.5 9.0 12.3 63 4.1 NNW 59 80 32 43 997.5 997.4 6.8
19/01:31pm 18.3 8.6 11.8 66 3.6 NW 54 85 29 46 997.9 997.8 6.8
19/01:30pm 18.8 9.3 12.3 66 3.6 NW 54 70 29 38 997.6 997.5 6.8
19/01:27pm 19.8 11.2 14.0 69 3.3 NW 52 70 28 38 997.9 997.8 6.8
19/01:00pm 19.5 9.8 13.0 66 3.7 NW 56 70 30 38 997.7 997.6 6.8
19/12:36pm 19.4 10.5 14.2 72 3.0 NNW 54 72 29 39 997.7 997.6 6.8
19/12:30pm 19.0 9.5 14.1 73 2.8 NW 57 70 31 38 997.6 997.5 6.8
19/12:05pm 18.6 12.0 18.1 97 0.3 NNW 50 74 27 40 997.5 997.4 6.8
19/12:00pm 18.5 13.4 18.5 100 0.0 N 43 59 23 32 997.6 997.5 6.8
19/11:30am 16.6 9.7 16.6 100 0.0 N 48 59 26 32 997.1 997.0 6.8
19/11:00am 16.2 7.6 16.2 100 0.0 N 56 78 30 42 997.5 997.4 6.6
19/10:50am 15.7 9.4 15.7 100 0.0 N 43 65 23 35 997.3 997.2 6.6
19/10:30am 16.2 9.9 16.2 100 0.0 N 44 59 24 32 997.4 997.3 2.0
19/10:00am 16.2 9.2 16.2 100 0.0 N 48 69 26 37 997.0 996.9 0.8
19/09:31am 16.6 10.7 16.6 100 0.0 N 43 61 23 33 997.5 997.4 0.4
19/09:30am 16.6 10.7 16.6 100 0.0 N 43 57 23 31 997.3 997.2 0.4
19/09:24am 16.7 11.2 16.7 100 0.0 NNE 41 59 22 32 997.4 997.3 0.2
19/09:00am 16.7 11.2 16.7 100 0.0 NNE 41 52 22 28 996.6 996.5 11.4
19/08:30am 16.3 11.0 16.3 100 0.0 NNE 39 54 21 29 996.9 996.8 11.4
19/08:00am 16.2 10.9 16.2 100 0.0 N 39 48 21 26 998.6 998.5 10.8
19/07:30am 16.3 12.6 16.1 99 0.1 NNW 30 39 16 21 998.2 998.1 9.8
19/07:00am 16.8 12.4 16.6 99 0.1 WNW 35 46 19 25 998.0 997.9 9.2
19/06:44am 16.9 10.8 16.7 99 0.1 W 44 59 24 32 997.5 997.4 8.8
19/06:31am 17.1 7.9 16.9 99 0.1 WNW 61 80 33 43 996.6 996.5 8.6
19/06:30am 17.1 7.5 16.9 99 0.1 WNW 63 80 34 43 996.6 996.5 8.6
19/06:21am 17.0 7.0 17.0 100 0.0 NW 65 95 35 51 995.9 995.8 8.4
19/06:19am 16.9 8.0 16.9 100 0.0 NW 59 95 32 51 995.4 995.3 8.2
19/06:16am 17.3 9.6 17.3 100 0.0 NNW 54 83 29 45 995.2 995.1 8.2
19/06:15am 17.5 10.2 17.5 100 0.0 NNW 52 70 28 38 995.2 995.1 8.2
19/06:10am 17.2 9.4 17.2 100 0.0 N 54 70 29 38 994.5 994.4 8.2
19/06:00am 16.5 7.9 16.5 100 0.0 NNE 57 78 31 42 994.3 994.2 8.0
19/05:30am 16.3 6.7 16.1 99 0.1 NNE 61 83 33 45 995.3 995.2 7.6
19/05:10am 16.8 11.6 16.6 99 0.1 NE 39 82 21 44 995.8 995.7 7.6
19/05:06am 16.2 12.6 16.2 100 0.0 NE 30 48 16 26 996.9 996.8 7.6
19/05:00am 15.9 13.3 15.9 100 0.0 ENE 24 39 13 21 997.1 997.0 7.6
19/04:30am 15.6 13.6 15.6 100 0.0 ENE 20 32 11 17 997.5 997.4 7.2
19/04:00am 15.6 13.6 15.6 100 0.0 ENE 20 26 11 14 997.8 997.7 7.0
19/03:30am 15.6 13.8 15.6 100 0.0 ENE 19 26 10 14 998.2 998.1 6.8
19/03:00am 15.8 14.9 15.8 100 0.0 ENE 15 19 8 10 999.4 999.3 6.2
19/02:30am 16.0 14.8 16.0 100 0.0 NE 17 28 9 15 1000.0 999.9 5.2
19/02:00am 16.4 15.7 16.4 100 0.0 NE 15 20 8 11 1000.7 1000.6 3.0
19/01:30am 16.6 15.6 16.6 100 0.0 NNE 17 22 9 12 1001.7 1001.6 1.6
19/01:00am 17.0 15.5 16.8 99 0.1 NNE 20 26 11 14 1002.9 1002.8 0.4
19/12:30am 17.6 16.0 16.5 93 0.7 NNE 20 26 11 14 1003.2 1003.1 0.0
19/12:00am 17.8 16.2 16.0 89 1.1 NNE 19 26 10 14 1003.8 1003.7 0.0
 
Date/Time
WST
Temp
°C
App
Temp
°C
Dew
Point
°C
Rel
Hum
%
Delta-T
°C
Wind Press
QNH
hPa
Press
MSL
hPa
Rain since
9am
mm
Dir  Spd
km/h
Gust
km/h
Spd
kts
Gust
kts
18/11:30pm 17.7 17.0 15.5 87 1.3 NNW 13 15 7 8 1003.1 1003.0 0.0
18/11:00pm 17.5 16.7 15.1 86 1.4 NNW 13 15 7 8 1004.5 1004.4 0.0
18/10:30pm 17.9 18.2 15.0 83 1.7 WNW 7 9 4 5 1005.0 1005.0 0.0
18/10:00pm 17.8 17.7 14.9 83 1.7 WNW 9 9 5 5 1005.3 1005.3 0.0
18/09:30pm 17.8 17.9 14.5 81 1.9 WNW 7 7 4 4 1005.5 1005.5 0.0
18/09:00pm 17.8 17.9 14.5 81 1.9 WNW 7 9 4 5 1005.8 1005.8 0.0
18/08:30pm 18.0 18.2 14.7 81 1.9 WNW 7 9 4 5 1006.0 1006.0 0.0
18/08:00pm 17.8 17.4 14.1 79 2.1 WNW 9 11 5 6 1005.8 1005.8 0.0
18/07:30pm 18.0 17.5 13.9 77 2.3 WNW 9 13 5 7 1005.4 1005.4 0.0
18/07:00pm 18.0 17.1 13.7 76 2.5 WNW 11 15 6 8 1006.0 1006.0 0.0
18/06:30pm 18.0 16.6 13.5 75 2.6 WNW 13 17 7 9 1006.2 1006.2 0.0
18/06:00pm 18.7 16.0 12.9 69 3.3 NW 19 22 10 12 1005.9 1005.9 0.0
18/05:30pm 19.6 16.7 12.8 65 3.8 NW 20 26 11 14 1006.1 1006.1 0.0
18/05:00pm 20.3 17.2 12.3 60 4.5 NNW 20 24 11 13 1005.6 1005.6 0.0
18/04:30pm 20.6 17.1 12.3 59 4.7 NNW 22 26 12 14 1006.0 1006.0 0.0
18/04:00pm 20.7 16.9 12.4 59 4.7 NW 24 30 13 16 1006.0 1006.0 0.0
18/03:30pm 20.7 16.3 11.6 56 5.1 NW 26 30 14 16 1006.5 1006.5 0.0
18/03:00pm 20.9 15.8 10.7 52 5.6 NW 28 35 15 19 1007.0 1007.0 0.0
18/02:30pm 21.2 16.8 11.8 55 5.3 NW 26 32 14 17 1007.3 1007.3 0.0
18/02:00pm 21.5 16.9 12.4 56 5.2 NNW 28 33 15 18 1007.6 1007.6 0.0
18/01:30pm 20.6 15.6 11.0 54 5.3 NNW 28 33 15 18 1008.3 1008.2 0.0
18/01:00pm 20.8 16.5 10.6 52 5.6 NNW 24 30 13 16 1008.6 1008.5 0.0
18/12:30pm 20.7 16.3 10.5 52 5.6 NNW 24 28 13 15 1009.0 1008.9 0.0
18/12:00pm 20.5 16.2 10.6 53 5.4 N 24 32 13 17 1009.4 1009.3 0.0
18/11:30am 20.8 16.1 10.6 52 5.6 N 26 33 14 18 1009.7 1009.6 0.0
18/11:00am 20.1 15.7 10.5 54 5.2 NNE 24 33 13 18 1010.0 1009.9 0.0
18/10:30am 19.4 14.2 10.4 56 4.9 NNE 28 33 15 18 1010.4 1010.3 0.0
18/10:00am 19.5 14.4 10.5 56 4.9 NE 28 35 15 19 1010.5 1010.4 0.0
18/09:30am 19.6 15.1 12.6 64 3.9 NE 28 35 15 19 1010.6 1010.5 0.0
18/09:00am 18.4 13.9 12.6 69 3.2 NE 28 35 15 19 1010.7 1010.6 0.0
18/08:30am 17.8 13.4 12.9 73 2.7 NE 28 35 15 19 1010.7 1010.6 0.0
18/08:00am 17.2 13.4 13.5 79 2.1 NE 26 33 14 18 1010.7 1010.6 0.0
18/07:30am 16.6 13.6 13.7 83 1.6 NE 22 28 12 15 1010.7 1010.6 0.0

Other formats

Comma delimited format used in spreadsheet applications
http://www.bom.gov.au/fwo/IDW60801/IDW60801.94602.axf

JavaScript Object Notation format (JSON) in row-major order
http://www.bom.gov.au/fwo/IDW60801/IDW60801.94602.json

Data quality

Most of these data are generated automatically and are frequently updated. Quality checks on data are not normally performed. It is possible for incorrect values to appear. Refer to information at About Latest Weather Observations and please check the disclaimer before using these data.